createdAt,value
2018-10-17T00:03:22.012Z,15.90
2018-10-17T00:07:25.950Z,16.83
2018-10-17T00:11:29.829Z,14.87
2018-10-17T00:15:33.635Z,17.27
2018-10-17T00:19:37.970Z,16.50
2018-10-17T00:23:41.811Z,15.37
2018-10-17T00:27:45.634Z,14.90
2018-10-17T00:31:49.362Z,16.13
2018-10-17T00:35:53.172Z,18.00
2018-10-17T00:39:57.040Z,15.67
2018-10-17T00:44:00.852Z,16.90
2018-10-17T00:48:05.069Z,17.53
2018-10-17T00:52:09.532Z,15.67
2018-10-17T00:56:13.472Z,15.50
2018-10-17T01:00:17.429Z,15.33
2018-10-17T01:04:21.352Z,15.40
2018-10-17T01:08:25.209Z,16.37
2018-10-17T01:12:29.312Z,16.77
2018-10-17T01:16:33.187Z,16.60
2018-10-17T01:20:37.030Z,17.17
2018-10-17T01:24:40.710Z,16.23
2018-10-17T01:28:44.507Z,16.00
2018-10-17T01:32:48.296Z,15.77
2018-10-17T01:36:52.133Z,16.17
2018-10-17T01:40:55.959Z,15.40
2018-10-17T01:44:59.719Z,15.13
2018-10-17T01:49:03.543Z,15.10
2018-10-17T01:53:07.363Z,16.00
2018-10-17T01:57:11.067Z,15.57
2018-10-17T02:01:15.121Z,16.67
2018-10-17T02:05:18.786Z,15.33
2018-10-17T02:09:22.638Z,14.60
2018-10-17T02:13:26.578Z,15.20
2018-10-17T02:17:30.354Z,15.17
2018-10-17T02:21:34.393Z,14.90
2018-10-17T02:25:38.194Z,16.37
2018-10-17T02:29:42.158Z,16.70
2018-10-17T02:33:45.886Z,16.63
2018-10-17T02:37:49.799Z,17.63
2018-10-17T02:41:53.633Z,17.47
2018-10-17T02:45:57.603Z,15.37
2018-10-17T02:50:04.842Z,16.47
2018-10-17T02:54:08.711Z,16.73
2018-10-17T02:58:12.448Z,16.47
2018-10-17T03:02:16.153Z,15.57
2018-10-17T03:06:19.898Z,15.40
2018-10-17T03:10:23.713Z,16.87
2018-10-17T03:14:27.593Z,17.20
2018-10-17T03:18:31.378Z,15.17
2018-10-17T03:22:35.226Z,16.40
2018-10-17T03:26:39.008Z,16.03
2018-10-17T03:30:42.807Z,14.80
2018-10-17T03:34:46.724Z,16.03
2018-10-17T03:38:50.437Z,16.30
2018-10-17T03:42:54.428Z,15.53
2018-10-17T03:46:58.282Z,15.87
2018-10-17T03:51:02.076Z,16.93
2018-10-17T03:55:05.845Z,15.47
2018-10-17T03:59:09.641Z,16.50
2018-10-17T04:03:13.473Z,15.97
2018-10-17T04:07:17.292Z,15.53
2018-10-17T04:11:21.161Z,14.97
2018-10-17T04:15:24.973Z,15.90
2018-10-17T04:19:28.873Z,15.23
2018-10-17T04:23:32.536Z,15.90
2018-10-17T04:27:43.725Z,16.97
2018-10-17T04:31:47.482Z,15.23
2018-10-17T04:35:51.345Z,17.03
2018-10-17T04:39:55.110Z,16.47
2018-10-17T04:43:59.010Z,15.57
2018-10-17T04:48:02.884Z,16.80
2018-10-17T04:52:06.675Z,16.23
2018-10-17T04:56:10.491Z,14.80
2018-10-17T05:00:14.404Z,15.77
2018-10-17T05:04:19.631Z,16.80
2018-10-17T05:08:23.662Z,15.23
2018-10-17T05:12:27.430Z,14.43
2018-10-17T05:16:31.232Z,15.53
2018-10-17T05:20:35.008Z,15.77
2018-10-17T05:24:38.848Z,14.83
2018-10-17T05:28:42.569Z,16.07
2018-10-17T05:32:46.408Z,15.43
2018-10-17T05:36:50.298Z,14.77
2018-10-17T05:40:54.311Z,16.40
2018-10-17T05:44:58.264Z,14.53
2018-10-17T05:49:02.187Z,15.00
2018-10-17T05:53:06.252Z,15.13
2018-10-17T05:57:10.328Z,16.07
2018-10-17T06:01:14.635Z,17.27
2018-10-17T06:05:18.857Z,16.23
2018-10-17T06:09:22.950Z,15.43
2018-10-17T06:13:27.360Z,15.27
2018-10-17T06:17:31.287Z,15.13
2018-10-17T06:21:35.597Z,15.20
2018-10-17T06:25:39.432Z,16.30
2018-10-17T06:29:43.287Z,16.40
2018-10-17T06:33:47.357Z,15.97
2018-10-17T06:37:51.220Z,15.63
2018-10-17T06:41:55.664Z,14.90
2018-10-17T06:45:59.732Z,16.83
2018-10-17T06:50:04.173Z,18.37
2018-10-17T06:54:09.649Z,17.10
2018-10-17T06:58:13.649Z,15.90
2018-10-17T07:02:17.631Z,17.80
2018-10-17T07:06:21.493Z,15.97
2018-10-17T07:10:25.574Z,17.27
2018-10-17T07:14:30.212Z,18.70
2018-10-17T07:18:33.931Z,18.07
2018-10-17T07:22:37.897Z,18.33
2018-10-17T07:26:43.517Z,18.93
2018-10-17T07:30:47.588Z,17.97
2018-10-17T07:34:51.511Z,18.43
2018-10-17T07:38:55.976Z,19.57
2018-10-17T07:42:59.966Z,18.70
2018-10-17T07:47:03.981Z,19.13
2018-10-17T07:51:07.894Z,19.83
2018-10-17T07:55:12.970Z,18.03
2018-10-17T07:59:16.931Z,18.97
2018-10-17T08:03:21.066Z,19.30
2018-10-17T08:07:25.287Z,18.93
2018-10-17T08:11:29.497Z,19.10
2018-10-17T08:15:33.537Z,21.90
2018-10-17T08:19:37.482Z,22.07
2018-10-17T08:23:41.788Z,21.07
2018-10-17T08:27:46.342Z,21.33
2018-10-17T08:31:52.055Z,20.80
2018-10-17T08:36:05.592Z,20.90
2018-10-17T08:40:23.209Z,20.63
2018-10-17T08:44:38.397Z,20.70
2018-10-17T08:48:49.845Z,20.30
2018-10-17T08:53:03.418Z,20.27
2018-10-17T08:57:29.756Z,19.50
2018-10-17T09:06:21.390Z,20.07
